Time;durP1;ratioP1;P1;durP2;ratioP2;P2;SDS_P1;SDS_P2;PMS_P1;PMS_P2;Temp;Humidity;BMP_temperature;BMP_pressure;BME280_temperature;BME280_humidity;BME280_pressure;Samples;Min_cycle;Max_cycle;Signal;HPM_P1;HPM_P2
2022/04/04 00:01:07;;;;;;;0.10;0.10;;;;;;;5.65;87.64;100641.00;5048888;28;20541;-69
2022/04/04 00:03:33;;;;;;;0.10;0.10;;;;;;;5.72;88.01;100646.63;5022206;28;20057;-69
2022/04/04 00:05:58;;;;;;;0.10;0.10;;;;;;;5.87;86.38;100651.44;5020205;28;20024;-68
2022/04/04 00:08:24;;;;;;;0.10;0.10;;;;;;;5.96;85.75;100646.84;5044967;28;20052;-69
2022/04/04 00:10:49;;;;;;;0.10;0.10;;;;;;;5.57;87.36;100639.94;5027178;28;20064;-69
2022/04/04 00:13:15;;;;;;;0.10;0.10;;;;;;;5.57;87.59;100642.63;5036903;28;20060;-69
2022/04/04 00:15:41;;;;;;;0.20;0.20;;;;;;;5.77;87.18;100639.19;5020986;28;20061;-68
2022/04/04 00:18:10;;;;;;;0.20;0.20;;;;;;;5.64;88.29;100636.75;5010981;28;20042;-67
2022/04/04 00:20:36;;;;;;;0.10;0.10;;;;;;;5.46;88.68;100628.03;5013435;28;20034;-69
2022/04/04 00:23:01;;;;;;;0.15;0.15;;;;;;;5.58;88.60;100630.81;5037316;28;20033;-69
2022/04/04 00:25:27;;;;;;;0.10;0.10;;;;;;;5.61;87.82;100624.06;5032539;28;20036;-69
2022/04/04 00:27:53;;;;;;;0.10;0.10;;;;;;;5.52;87.92;100628.66;5025304;28;20037;-67
2022/04/04 00:30:18;;;;;;;0.10;0.10;;;;;;;5.46;88.86;100618.16;5016236;28;20421;-68
2022/04/04 00:32:44;;;;;;;0.10;0.10;;;;;;;5.38;89.23;100616.28;5032570;28;20025;-69
2022/04/04 00:35:10;;;;;;;0.10;0.10;;;;;;;5.40;89.14;100622.09;5019725;28;20065;-68
2022/04/04 00:37:37;;;;;;;0.15;0.15;;;;;;;5.29;89.76;100602.22;5013571;28;20029;-68
2022/04/04 00:40:07;;;;;;;0.38;0.38;;;;;;;5.36;90.13;100609.72;5014453;28;20045;-68
2022/04/04 00:42:33;;;;;;;0.32;0.32;;;;;;;5.38;89.61;100596.84;5019477;28;20049;-68
2022/04/04 00:44:59;;;;;;;0.55;0.55;;;;;;;5.49;89.49;100598.03;5026446;28;20059;-67
2022/04/04 00:47:25;;;;;;;0.10;0.10;;;;;;;5.49;88.98;100596.16;5029227;28;20033;-69
2022/04/04 00:49:51;;;;;;;0.20;0.20;;;;;;;5.35;89.76;100576.09;5012740;28;20029;-68
2022/04/04 00:52:17;;;;;;;0.10;0.10;;;;;;;5.40;90.26;100582.03;5027170;28;20663;-68
2022/04/04 00:54:43;;;;;;;0.10;0.10;;;;;;;5.32;90.04;100580.19;5016105;28;20033;-68
2022/04/04 00:57:08;;;;;;;0.20;0.20;;;;;;;5.36;90.54;100577.69;5030485;28;20048;-68
2022/04/04 00:59:34;;;;;;;0.10;0.10;;;;;;;5.36;90.22;100578.44;5004470;28;20041;-68
2022/04/04 01:01:59;;;;;;;0.10;0.10;;;;;;;5.33;90.46;100565.75;5022021;28;20027;-69
2022/04/04 01:04:25;;;;;;;0.10;0.10;;;;;;;5.53;89.61;100554.31;5003017;28;20514;-68
2022/04/04 01:06:52;;;;;;;0.10;0.10;;;;;;;5.46;89.21;100558.63;5015419;28;20120;-68
2022/04/04 01:09:18;;;;;;;0.10;0.10;;;;;;;5.59;88.87;100556.81;5013610;28;20048;-67
2022/04/04 01:12:10;;;;;;;0.10;0.10;;;;;;;5.38;89.19;100554.13;5014852;28;20030;-69
2022/04/04 01:14:48;;;;;;;0.10;0.10;;;;;;;5.29;90.47;100538.13;5031598;28;20037;-69
2022/04/04 01:17:15;;;;;;;0.10;0.10;;;;;;;5.16;91.19;100536.47;5007238;28;20406;-69
2022/04/04 01:19:41;;;;;;;0.45;0.45;;;;;;;5.20;91.46;100541.97;5025735;28;20040;-69
2022/04/04 01:22:09;;;;;;;0.10;0.10;;;;;;;5.23;91.14;100526.06;5019823;28;20029;-69
2022/04/04 01:24:39;;;;;;;0.10;0.10;;;;;;;5.48;89.67;100524.38;5031852;28;20017;-68
2022/04/04 01:27:07;;;;;;;0.28;0.28;;;;;;;5.33;90.62;100523.03;5048931;28;20037;-68
2022/04/04 01:29:34;;;;;;;0.10;0.10;;;;;;;5.18;91.06;100518.25;5031457;28;20039;-67
2022/04/04 01:32:00;;;;;;;0.10;0.10;;;;;;;5.33;90.88;100507.03;5007399;28;20057;-69
2022/04/04 01:34:26;;;;;;;0.20;0.20;;;;;;;5.21;90.62;100509.59;5036461;28;20038;-68
2022/04/04 01:36:52;;;;;;;0.10;0.10;;;;;;;5.22;91.70;100510.41;5041336;28;20044;-68
2022/04/04 01:39:18;;;;;;;0.10;0.10;;;;;;;5.21;91.20;100504.25;5026287;28;20165;-69
2022/04/04 01:41:44;;;;;;;0.20;0.20;;;;;;;5.26;91.34;100490.75;5041286;28;20037;-69
2022/04/04 01:44:10;;;;;;;0.10;0.10;;;;;;;5.30;90.41;100498.88;5036193;28;20032;-69
2022/04/04 01:46:35;;;;;;;0.20;0.20;;;;;;;5.21;91.04;100485.59;5053035;28;20032;-68
2022/04/04 01:49:04;;;;;;;0.10;0.10;;;;;;;5.27;90.23;100476.28;5015976;28;20494;-68
2022/04/04 01:51:30;;;;;;;0.10;0.10;;;;;;;5.17;90.44;100473.19;5039939;28;20144;-69
2022/04/04 01:53:56;;;;;;;0.10;0.10;;;;;;;5.07;91.33;100468.25;5018710;28;20063;-69
2022/04/04 01:56:22;;;;;;;0.10;0.10;;;;;;;4.99;91.33;100472.53;5021273;28;20551;-68
2022/04/04 01:58:48;;;;;;;0.10;0.10;;;;;;;4.91;91.13;100464.56;5035466;28;20056;-69
2022/04/04 02:01:21;;;;;;;0.10;0.10;;;;;;;4.93;91.31;100463.16;5014621;28;20406;-68
2022/04/04 02:03:51;;;;;;;0.10;0.10;;;;;;;4.92;91.78;100458.91;5033405;28;20037;-69
2022/04/04 02:06:18;;;;;;;0.10;0.10;;;;;;;4.94;91.39;100450.56;5028068;28;20037;-69
2022/04/04 02:08:44;;;;;;;0.10;0.10;;;;;;;4.92;91.72;100444.78;5030907;28;20030;-68
2022/04/04 02:11:10;;;;;;;0.10;0.10;;;;;;;4.93;91.43;100439.13;5014746;28;20764;-68
2022/04/04 02:13:36;;;;;;;0.10;0.10;;;;;;;5.00;90.78;100423.38;5012650;28;20133;-67
2022/04/04 02:16:04;;;;;;;0.20;0.20;;;;;;;4.81;91.62;100424.91;5023266;28;20044;-69
2022/04/04 02:18:31;;;;;;;0.20;0.20;;;;;;;4.82;91.87;100419.25;5007956;28;20034;-69
2022/04/04 02:20:57;;;;;;;0.20;0.20;;;;;;;4.83;92.18;100423.50;5038579;28;20036;-68
2022/04/04 02:23:23;;;;;;;0.25;0.25;;;;;;;5.17;90.80;100422.50;5029312;28;20117;-69
2022/04/04 02:25:53;;;;;;;0.20;0.20;;;;;;;4.88;91.35;100417.19;5029763;28;20032;-69
2022/04/04 02:28:19;;;;;;;0.10;0.10;;;;;;;4.79;92.53;100409.22;5019629;28;20052;-69
2022/04/04 02:30:46;;;;;;;0.20;0.20;;;;;;;4.95;92.32;100398.78;5032881;28;20025;-69
2022/04/04 02:33:13;;;;;;;0.10;0.10;;;;;;;5.02;91.38;100401.72;5035700;28;20566;-68
2022/04/04 02:35:39;;;;;;;0.38;0.38;;;;;;;5.05;91.00;100401.84;5019473;28;20037;-68
2022/04/04 02:38:05;;;;;;;0.10;0.10;;;;;;;4.93;90.99;100396.44;5037622;28;20502;-70
2022/04/04 02:40:32;;;;;;;0.20;0.20;;;;;;;4.79;92.17;100387.09;5022972;28;20039;-69
2022/04/04 02:42:57;;;;;;;0.20;0.20;;;;;;;5.12;90.47;100383.47;5025295;28;20107;-69
2022/04/04 02:45:23;;;;;;;0.10;0.10;;;;;;;4.84;91.67;100379.69;5052811;28;20021;-69
2022/04/04 02:47:48;;;;;;;0.10;0.10;;;;;;;4.78;92.63;100377.56;5022143;28;20370;-69
2022/04/04 02:50:16;;;;;;;0.30;0.30;;;;;;;4.70;92.66;100376.50;5022134;28;20037;-69
2022/04/04 02:52:44;;;;;;;0.17;0.17;;;;;;;4.64;93.49;100363.66;5046787;28;20075;-69
2022/04/04 02:58:11;;;;;;;0.10;0.10;;;;;;;4.70;93.53;100355.16;4961082;28;20507;-68
2022/04/04 03:00:37;;;;;;;0.13;0.13;;;;;;;4.76;93.25;100343.22;5011063;28;20046;-68
2022/04/04 03:03:02;;;;;;;0.20;0.20;;;;;;;4.96;91.63;100347.78;5032674;28;20034;-69
2022/04/04 03:05:28;;;;;;;0.10;0.10;;;;;;;4.82;92.21;100341.91;5013122;28;20023;-69
2022/04/04 03:07:54;;;;;;;0.20;0.20;;;;;;;4.84;92.24;100331.69;5029683;28;20525;-69
2022/04/04 03:10:19;;;;;;;0.20;0.20;;;;;;;4.71;92.68;100324.72;5032612;28;20498;-68
2022/04/04 03:12:51;;;;;;;0.17;0.17;;;;;;;4.57;93.30;100318.84;5011802;28;20041;-69
2022/04/04 03:15:23;;;;;;;0.10;0.10;;;;;;;4.49;94.02;100315.13;5022346;28;20038;-69
2022/04/04 03:17:51;;;;;;;0.20;0.20;;;;;;;4.63;93.38;100306.88;5050009;28;20087;-69
2022/04/04 03:20:18;;;;;;;0.10;0.10;;;;;;;4.73;92.80;100311.06;5052589;28;20028;-68
2022/04/04 03:22:50;;;;;;;0.40;0.40;;;;;;;4.54;93.73;100314.16;5011811;28;20075;-67
2022/04/04 03:25:17;;;;;;;0.20;0.20;;;;;;;4.56;93.80;100304.75;5021824;28;20060;-69
2022/04/04 03:27:44;;;;;;;0.15;0.15;;;;;;;4.73;92.71;100295.84;5031212;28;20398;-68
2022/04/04 03:30:13;;;;;;;0.30;0.30;;;;;;;4.60;92.87;100288.88;5016961;28;20025;-69
2022/04/04 03:32:39;;;;;;;0.10;0.10;;;;;;;4.68;92.61;100282.72;5029314;28;20033;-68
2022/04/04 03:35:06;;;;;;;0.10;0.10;;;;;;;4.77;92.03;100274.63;4995800;28;20033;-69
2022/04/04 03:37:33;;;;;;;0.10;0.10;;;;;;;4.76;92.13;100273.88;5016350;28;20065;-69
2022/04/04 03:39:59;;;;;;;0.10;0.10;;;;;;;4.90;90.59;100269.03;5022718;28;20064;-69
2022/04/04 03:42:25;;;;;;;0.40;0.40;;;;;;;4.72;91.37;100262.31;5015794;28;20069;-69
2022/04/04 03:44:50;;;;;;;0.10;0.10;;;;;;;4.74;91.21;100260.09;5011409;28;20063;-70
2022/04/04 03:47:16;;;;;;;0.10;0.10;;;;;;;4.80;91.24;100261.44;5003007;28;20033;-68
2022/04/04 03:49:42;;;;;;;0.32;0.32;;;;;;;4.78;91.36;100241.53;4994202;28;20038;-68
2022/04/04 03:52:28;;;;;;;0.10;0.10;;;;;;;4.75;91.18;100239.50;5012211;28;20033;-68
2022/04/04 03:54:53;;;;;;;0.10;0.10;;;;;;;4.82;90.01;100243.22;4971138;28;20039;-69
2022/04/04 03:57:19;;;;;;;0.25;0.25;;;;;;;4.93;91.01;100236.41;4989279;28;20137;-67
2022/04/04 03:59:45;;;;;;;0.20;0.20;;;;;;;4.79;91.21;100225.22;4990159;28;20050;-68
2022/04/04 04:02:11;;;;;;;0.10;0.10;;;;;;;4.92;90.18;100228.69;5204794;22;20034;-63
2022/04/04 04:04:37;;;;;;;0.10;0.10;;;;;;;4.69;91.09;100212.28;4994442;28;20087;-63
2022/04/04 04:07:03;;;;;;;0.10;0.10;;;;;;;4.85;91.14;100217.78;5006111;28;20464;-62
2022/04/04 04:09:28;;;;;;;0.10;0.10;;;;;;;4.81;91.14;100207.00;5007240;28;20116;-62
2022/04/04 04:11:55;;;;;;;0.10;0.10;;;;;;;4.84;90.83;100198.34;5007928;28;20068;-63
2022/04/04 04:14:22;;;;;;;0.10;0.10;;;;;;;5.02;90.65;100201.63;5010173;28;20500;-64
2022/04/04 04:16:47;;;;;;;0.10;0.10;;;;;;;4.89;90.54;100181.34;4992686;28;20030;-64
2022/04/04 04:20:19;;;;;;;0.10;0.10;;;;;;;4.87;90.74;100184.34;4990450;28;20064;-64
2022/04/04 04:21:58;;;;;;;0.13;0.13;;;;;;;4.78;91.13;100170.31;4990449;28;20540;-63
2022/04/04 04:24:24;;;;;;;0.20;0.20;;;;;;;4.75;90.98;100162.19;5005054;28;20033;-64
2022/04/04 04:26:50;;;;;;;0.17;0.17;;;;;;;4.74;91.50;100156.09;5007639;28;20464;-64
2022/04/04 04:29:16;;;;;;;0.45;0.45;;;;;;;4.66;91.54;100159.59;5001948;28;20527;-63
2022/04/04 04:31:41;;;;;;;0.10;0.10;;;;;;;4.87;91.49;100140.91;5005610;28;20065;-64
2022/04/04 04:34:06;;;;;;;0.10;0.10;;;;;;;4.84;90.59;100144.22;5003914;28;20061;-64
2022/04/04 04:36:32;;;;;;;0.10;0.10;;;;;;;4.83;90.24;100124.78;5008749;28;20491;-65
2022/04/04 04:38:58;;;;;;;0.10;0.10;;;;;;;4.87;90.25;100123.00;4973027;28;20147;-62
2022/04/04 04:41:23;;;;;;;0.20;0.20;;;;;;;4.76;90.97;100123.75;5005278;28;20026;-63
2022/04/04 04:43:48;;;;;;;0.10;0.10;;;;;;;4.92;89.59;100120.13;5008297;28;20045;-62
2022/04/04 04:46:14;;;;;;;0.10;0.10;;;;;;;4.87;90.64;100114.22;4989000;28;20065;-62
2022/04/04 04:48:39;;;;;;;0.10;0.10;;;;;;;4.83;90.36;100100.78;4979107;28;20485;-62
2022/04/04 04:51:05;;;;;;;0.20;0.20;;;;;;;4.82;90.68;100093.88;5009982;28;20070;-63
2022/04/04 04:53:30;;;;;;;0.10;0.10;;;;;;;4.94;89.54;100091.22;5001387;28;20034;-63
2022/04/04 04:55:56;;;;;;;0.40;0.40;;;;;;;4.91;89.24;100075.91;5005426;28;20578;-63
2022/04/04 04:58:21;;;;;;;0.10;0.10;;;;;;;4.94;88.96;100080.56;4991812;28;20037;-63
2022/04/04 05:00:46;;;;;;;0.32;0.30;;;;;;;4.88;89.78;100068.53;5007062;28;20489;-63
2022/04/04 05:03:24;;;;;;;0.10;0.10;;;;;;;4.88;89.09;100057.13;4983907;28;20045;-63
2022/04/04 05:05:50;;;;;;;0.10;0.10;;;;;;;4.94;89.39;100053.88;5000057;28;20026;-63
2022/04/04 05:08:15;;;;;;;0.52;0.52;;;;;;;4.88;89.31;100046.44;5008395;28;20033;-62
2022/04/04 05:10:40;;;;;;;0.20;0.20;;;;;;;4.76;89.27;100036.53;5009132;28;20116;-64
2022/04/04 05:13:06;;;;;;;0.30;0.20;;;;;;;4.94;88.48;100037.88;4988705;28;20128;-63
2022/04/04 05:15:31;;;;;;;0.10;0.10;;;;;;;4.92;88.50;100025.97;5005882;28;20045;-63
2022/04/04 05:17:57;;;;;;;0.10;0.10;;;;;;;4.91;88.38;100019.88;4985084;28;20074;-63
2022/04/04 05:20:23;;;;;;;0.10;0.10;;;;;;;4.92;88.38;100018.75;5002559;28;20037;-63
2022/04/04 05:22:49;;;;;;;0.10;0.10;;;;;;;5.16;88.03;100013.44;5004843;28;20377;-63
2022/04/04 05:25:15;;;;;;;0.10;0.10;;;;;;;5.09;88.54;100010.53;5006531;28;20057;-63
2022/04/04 05:27:41;;;;;;;0.65;0.65;;;;;;;4.98;88.33;100017.44;5009817;28;20092;-63
2022/04/04 05:30:08;;;;;;;0.20;0.20;;;;;;;5.09;87.92;99999.88;5000679;28;20561;-63
2022/04/04 05:32:34;;;;;;;0.40;0.40;;;;;;;5.07;88.05;99999.41;4988154;28;20053;-64
2022/04/04 05:35:01;;;;;;;0.10;0.10;;;;;;;5.02;88.22;99994.31;4992825;28;20047;-63
2022/04/04 05:37:26;;;;;;;0.20;0.20;;;;;;;5.02;88.18;99994.31;4989829;28;20093;-64
2022/04/04 05:39:52;;;;;;;0.30;0.30;;;;;;;5.03;88.47;99989.78;4995217;28;20038;-63
2022/04/04 05:42:17;;;;;;;0.10;0.10;;;;;;;5.27;87.66;99979.84;4982660;28;20041;-63
2022/04/04 05:44:43;;;;;;;0.20;0.20;;;;;;;5.13;88.22;99984.00;4993606;28;20424;-64
2022/04/04 05:47:13;;;;;;;0.20;0.20;;;;;;;5.14;88.75;99980.97;4996049;28;20032;-63
2022/04/04 05:49:42;;;;;;;0.33;0.33;;;;;;;5.18;88.52;99984.53;5000448;28;20046;-63
2022/04/04 05:52:09;;;;;;;0.73;0.50;;;;;;;5.22;88.38;99976.63;5001361;28;20069;-63
2022/04/04 05:54:34;;;;;;;0.20;0.20;;;;;;;5.23;88.37;99970.16;5003592;28;20124;-64
2022/04/04 05:57:00;;;;;;;0.10;0.10;;;;;;;5.35;87.77;99970.16;5008260;28;20113;-63
2022/04/04 05:59:26;;;;;;;0.10;0.10;;;;;;;5.38;88.24;99969.50;5008256;28;20041;-62
2022/04/04 06:01:51;;;;;;;0.20;0.20;;;;;;;5.36;88.37;99963.72;5002748;28;20034;-63
2022/04/04 06:04:17;;;;;;;0.30;0.30;;;;;;;5.39;88.00;99969.16;5004939;28;20399;-63
2022/04/04 06:06:42;;;;;;;0.10;0.10;;;;;;;5.27;89.11;99950.50;5016201;28;20034;-62
2022/04/04 06:09:08;;;;;;;0.10;0.10;;;;;;;5.50;88.03;99951.56;5008717;28;20036;-63
2022/04/04 06:11:34;;;;;;;0.10;0.10;;;;;;;5.43;88.53;99934.56;5000640;28;20110;-62
2022/04/04 06:14:00;;;;;;;0.30;0.30;;;;;;;5.57;88.01;99931.50;5004944;28;20030;-62
2022/04/04 06:16:26;;;;;;;0.30;0.30;;;;;;;5.42;88.42;99931.09;5003515;28;20104;-62
2022/04/04 06:18:51;;;;;;;0.10;0.10;;;;;;;5.34;89.98;99937.34;5005912;28;20061;-63
2022/04/04 06:21:17;;;;;;;0.55;0.55;;;;;;;5.49;89.45;99912.63;5001543;28;20459;-64
2022/04/04 06:23:42;;;;;;;0.05;0.05;;;;;;;5.35;89.90;99916.78;5009822;28;20034;-63
2022/04/04 06:26:08;;;;;;;0.10;0.10;;;;;;;5.30;90.45;99909.78;5010841;28;20033;-64
2022/04/04 06:28:35;;;;;;;0.20;0.20;;;;;;;5.26;91.04;99916.94;4999724;28;20041;-64
2022/04/04 06:31:01;;;;;;;1.17;0.50;;;;;;;5.27;91.69;99907.78;5014662;28;20030;-64
2022/04/04 06:33:27;;;;;;;0.30;0.30;;;;;;;5.25;92.54;99891.34;5003467;28;20069;-63
2022/04/04 06:35:54;;;;;;;0.30;0.30;;;;;;;5.55;91.59;99904.38;5008212;28;20039;-63
2022/04/04 06:38:19;;;;;;;0.20;0.20;;;;;;;5.43;91.96;99903.31;5005021;28;20481;-63
2022/04/04 06:40:46;;;;;;;0.55;0.40;;;;;;;5.44;93.36;99893.38;5009873;28;20041;-63
2022/04/04 06:43:11;;;;;;;0.20;0.20;;;;;;;5.37;93.57;99890.53;5004479;28;20092;-64
2022/04/04 06:45:37;;;;;;;0.13;0.13;;;;;;;5.27;95.18;99888.31;5010008;28;20033;-63
2022/04/04 06:48:02;;;;;;;0.30;0.30;;;;;;;5.32;95.69;99877.44;5008912;28;20030;-64
2022/04/04 06:50:30;;;;;;;0.40;0.40;;;;;;;5.14;96.73;99876.13;5009118;28;20034;-63
2022/04/04 06:52:56;;;;;;;0.35;0.35;;;;;;;5.28;96.20;99853.28;5004790;28;20042;-64
2022/04/04 06:55:22;;;;;;;0.20;0.20;;;;;;;5.27;97.12;99862.41;5006292;28;20057;-63
2022/04/04 06:57:47;;;;;;;0.20;0.20;;;;;;;5.37;97.35;99856.59;5006882;28;20038;-64
2022/04/04 07:00:16;;;;;;;0.20;0.20;;;;;;;5.35;96.97;99853.50;4999678;28;20070;-62
2022/04/04 07:02:41;;;;;;;1.45;0.30;;;;;;;5.22;98.04;99841.31;5013442;28;20039;-63
2022/04/04 07:05:08;;;;;;;0.52;0.52;;;;;;;5.40;98.03;99834.56;5004176;28;20393;-63
2022/04/04 07:07:35;;;;;;;0.10;0.10;;;;;;;5.34;98.28;99838.59;5004545;28;20046;-64
2022/04/04 07:10:03;;;;;;;0.40;0.40;;;;;;;5.29;98.81;99835.38;5006710;28;20037;-63
2022/04/04 07:12:29;;;;;;;0.10;0.10;;;;;;;5.52;98.04;99817.72;5001193;28;20041;-63
2022/04/04 07:14:55;;;;;;;0.10;0.10;;;;;;;5.41;98.10;99817.44;5002014;28;20480;-63
2022/04/04 07:17:20;;;;;;;0.20;0.20;;;;;;;5.28;99.57;99820.50;5001158;28;20098;-64
2022/04/04 07:19:46;;;;;;;0.10;0.10;;;;;;;5.34;99.57;99801.22;4992932;28;20030;-64
2022/04/04 07:22:13;;;;;;;0.10;0.10;;;;;;;5.32;100.00;99810.72;5002928;28;20034;-64
2022/04/04 07:24:39;;;;;;;0.10;0.10;;;;;;;5.20;100.00;99787.50;5005438;28;20037;-63
2022/04/04 07:27:04;;;;;;;0.13;0.13;;;;;;;5.18;100.00;99786.28;5006249;28;20065;-64
2022/04/04 07:29:30;;;;;;;0.22;0.22;;;;;;;5.26;100.00;99791.50;5001635;28;20037;-64
2022/04/04 07:31:55;;;;;;;0.13;0.13;;;;;;;5.24;100.00;99776.94;5005497;28;20828;-64
2022/04/04 07:34:20;;;;;;;0.38;0.38;;;;;;;5.10;100.00;99772.00;5004017;28;20133;-63
2022/04/04 07:36:46;;;;;;;0.25;0.25;;;;;;;5.05;100.00;99748.19;4997922;28;20037;-63
2022/04/04 07:39:11;;;;;;;1.08;0.85;;;;;;;4.79;100.00;99747.09;4996832;28;20100;-63
2022/04/04 07:41:37;;;;;;;0.20;0.20;;;;;;;4.80;100.00;99749.41;5007277;28;20038;-61
2022/04/04 07:44:03;;;;;;;0.17;0.17;;;;;;;4.98;100.00;99747.22;5010646;28;20021;-62
2022/04/04 07:46:29;;;;;;;0.10;0.10;;;;;;;4.90;100.00;99734.81;5003325;28;20488;-62
2022/04/04 07:48:55;;;;;;;0.28;0.28;;;;;;;4.97;100.00;99727.03;5005315;28;20041;-63
2022/04/04 07:51:22;;;;;;;0.25;0.25;;;;;;;4.96;100.00;99712.91;4988708;28;20034;-65
2022/04/04 07:53:48;;;;;;;0.47;0.47;;;;;;;4.87;100.00;99709.63;5005560;28;20030;-64
2022/04/04 07:56:13;;;;;;;0.20;0.20;;;;;;;4.95;100.00;99707.91;5009987;28;20053;-63
2022/04/04 07:58:38;;;;;;;0.10;0.10;;;;;;;4.95;100.00;99691.91;5007886;28;20030;-63
2022/04/04 08:01:04;;;;;;;0.20;0.20;;;;;;;4.98;100.00;99686.66;5002167;28;20404;-63
2022/04/04 08:03:30;;;;;;;0.10;0.10;;;;;;;4.88;100.00;99679.16;4986744;28;20034;-62
2022/04/04 08:05:55;;;;;;;0.20;0.20;;;;;;;4.79;100.00;99675.88;4988355;28;20061;-64
2022/04/04 08:08:21;;;;;;;0.25;0.25;;;;;;;4.71;100.00;99666.13;5007502;28;20041;-64
2022/04/04 08:10:46;;;;;;;0.63;0.63;;;;;;;4.74;100.00;99662.78;5004581;28;20449;-63
2022/04/04 08:13:12;;;;;;;0.52;0.52;;;;;;;4.66;100.00;99653.03;5004832;28;20033;-63
2022/04/04 08:15:37;;;;;;;0.20;0.20;;;;;;;4.91;100.00;99640.38;5007411;28;20132;-64
2022/04/04 08:18:03;;;;;;;0.47;0.47;;;;;;;5.08;100.00;99632.03;5001910;28;20026;-64
2022/04/04 08:20:29;;;;;;;0.20;0.20;;;;;;;4.94;100.00;99639.66;5001023;28;20041;-64
2022/04/04 08:22:54;;;;;;;0.10;0.10;;;;;;;4.74;100.00;99619.34;5004692;28;20083;-63
2022/04/04 08:25:20;;;;;;;0.40;0.40;;;;;;;4.63;100.00;99615.63;5006662;28;20381;-63
2022/04/04 08:27:46;;;;;;;0.28;0.28;;;;;;;4.71;100.00;99604.81;5027860;28;20064;-64
2022/04/04 08:30:17;;;;;;;0.22;0.22;;;;;;;4.88;100.00;99620.47;4998936;28;20046;-64
2022/04/04 08:32:43;;;;;;;;;;;;;;;4.87;100.00;99592.28;4987633;28;20038;-64
2022/04/04 08:35:12;;;;;;;0.25;0.25;;;;;;;4.81;100.00;99577.63;5008987;28;19913;-64
2022/04/04 08:37:38;;;;;;;0.30;0.30;;;;;;;4.80;100.00;99576.06;5020413;28;20072;-63
2022/04/04 08:40:06;;;;;;;0.30;0.30;;;;;;;4.61;100.00;99573.31;5013716;28;20037;-64
2022/04/04 08:42:32;;;;;;;0.40;0.40;;;;;;;4.84;100.00;99552.94;4992765;28;20065;-63
2022/04/04 08:45:00;;;;;;;0.30;0.30;;;;;;;4.89;100.00;99555.38;5000537;28;20400;-63
2022/04/04 08:47:29;;;;;;;0.25;0.25;;;;;;;4.95;100.00;99554.00;4997588;28;20033;-64
2022/04/04 08:49:55;;;;;;;1.02;0.93;;;;;;;4.85;100.00;99545.72;5003343;28;20022;-64
2022/04/04 08:52:22;;;;;;;0.47;0.47;;;;;;;4.93;100.00;99539.44;5007315;28;20456;-63
2022/04/04 08:54:48;;;;;;;0.88;0.32;;;;;;;4.94;100.00;99523.09;5003015;28;20084;-64
2022/04/04 08:57:14;;;;;;;0.30;0.30;;;;;;;4.97;100.00;99514.44;4977810;28;20042;-63
2022/04/04 08:59:40;;;;;;;0.22;0.22;;;;;;;5.02;100.00;99508.81;4994970;28;20038;-64
2022/04/04 09:02:06;;;;;;;0.47;0.47;;;;;;;4.92;100.00;99498.66;5001157;28;20115;-63
2022/04/04 09:04:33;;;;;;;0.32;0.32;;;;;;;4.95;100.00;99506.00;5004161;28;20034;-63
2022/04/04 09:07:05;;;;;;;0.30;0.30;;;;;;;4.87;100.00;99474.94;5007020;28;20050;-62
2022/04/04 09:09:50;;;;;;;0.30;0.30;;;;;;;4.75;100.00;99483.03;5002243;28;20042;-63
2022/04/04 09:12:19;;;;;;;1.10;0.65;;;;;;;4.81;100.00;99462.97;4997787;28;20026;-64
2022/04/04 09:14:56;;;;;;;0.55;0.52;;;;;;;4.85;100.00;99458.50;4997462;28;20026;-62
2022/04/04 09:17:30;;;;;;;0.40;0.40;;;;;;;4.80;100.00;99447.34;5022667;28;20042;-63
2022/04/04 09:19:57;;;;;;;0.20;0.20;;;;;;;4.79;100.00;99435.88;4981879;28;20033;-63
2022/04/04 09:22:23;;;;;;;0.20;0.20;;;;;;;4.89;100.00;99429.25;4993548;28;20069;-63
2022/04/04 09:24:56;;;;;;;0.20;0.20;;;;;;;5.02;100.00;99426.13;4994606;28;20045;-63
2022/04/04 09:27:25;;;;;;;1.40;0.85;;;;;;;4.97;100.00;99410.41;4983595;28;20041;-63
2022/04/04 09:29:56;;;;;;;0.10;0.10;;;;;;;4.94;100.00;99408.41;4988924;28;20041;-63
2022/04/04 09:32:42;;;;;;;0.30;0.30;;;;;;;4.95;100.00;99406.53;5007117;28;20038;-63
2022/04/04 09:35:13;;;;;;;0.55;0.55;;;;;;;4.91;100.00;99416.34;4987589;28;20042;-63
2022/04/04 09:37:41;;;;;;;0.57;0.50;;;;;;;4.92;100.00;99399.22;4975078;28;20062;-64
2022/04/04 09:40:22;;;;;;;0.22;0.22;;;;;;;5.21;100.00;99401.38;5000127;28;20323;-61
2022/04/04 09:42:51;;;;;;;0.13;0.13;;;;;;;5.05;100.00;99381.97;4981603;28;20164;-62
2022/04/04 09:45:18;;;;;;;0.20;0.20;;;;;;;5.13;100.00;99370.34;4999734;28;20042;-64
2022/04/04 09:47:58;;;;;;;0.50;0.50;;;;;;;5.10;100.00;99366.47;4998716;28;20087;-64
2022/04/04 09:50:30;;;;;;;0.50;0.50;;;;;;;5.00;100.00;99371.56;4999042;28;20029;-64
2022/04/04 09:52:57;;;;;;;0.20;0.20;;;;;;;5.14;100.00;99350.53;5001707;28;20489;-64
2022/04/04 09:55:30;;;;;;;0.20;0.20;;;;;;;5.32;100.00;99354.34;5001780;28;20077;-63
2022/04/04 09:58:00;;;;;;;0.10;0.10;;;;;;;5.19;100.00;99355.59;5005911;28;20037;-63
2022/04/04 10:00:27;;;;;;;0.93;0.57;;;;;;;5.00;100.00;99345.69;4990451;28;20881;-63
2022/04/04 10:02:57;;;;;;;0.10;0.10;;;;;;;4.94;100.00;99336.41;5020032;22;20053;-58
2022/04/04 10:05:24;;;;;;;0.47;0.47;;;;;;;4.98;100.00;99331.91;5019018;28;20543;-59
2022/04/04 10:07:52;;;;;;;0.20;0.20;;;;;;;5.11;100.00;99327.25;5030479;28;20041;-58
2022/04/04 10:10:18;;;;;;;0.98;0.43;;;;;;;5.25;100.00;99320.28;5022193;28;20863;-57
2022/04/04 10:12:49;;;;;;;0.20;0.20;;;;;;;5.19;100.00;99311.00;5025757;28;20041;-60
2022/04/04 10:15:14;;;;;;;0.10;0.10;;;;;;;5.25;100.00;99324.81;5020213;28;20072;-60
2022/04/04 10:17:40;;;;;;;0.10;0.10;;;;;;;5.15;100.00;99310.16;4992765;28;20479;-59
2022/04/04 10:20:06;;;;;;;0.47;0.47;;;;;;;5.21;100.00;99295.41;5019336;28;20038;-58
2022/04/04 10:22:33;;;;;;;0.28;0.28;;;;;;;5.40;100.00;99294.66;5026697;28;20395;-60
2022/04/04 10:25:02;;;;;;;0.10;0.10;;;;;;;5.29;100.00;99305.09;5030430;28;20053;-60
2022/04/04 10:27:29;;;;;;;0.25;0.25;;;;;;;5.34;100.00;99286.13;5019142;28;20385;-58
2022/04/04 10:30:06;;;;;;;0.13;0.13;;;;;;;5.19;100.00;99276.31;5025332;28;20048;-59
2022/04/04 10:32:33;;;;;;;0.10;0.10;;;;;;;5.17;100.00;99283.91;5018888;28;20030;-59
2022/04/04 10:35:10;;;;;;;1.05;1.05;;;;;;;5.08;100.00;99269.25;5029062;28;20471;-61
2022/04/04 10:37:45;;;;;;;0.20;0.20;;;;;;;5.19;100.00;99267.53;5029992;28;20041;-59
2022/04/04 10:40:28;;;;;;;2.83;0.43;;;;;;;5.22;100.00;99256.94;5024163;28;20559;-58
2022/04/04 10:43:02;;;;;;;0.20;0.20;;;;;;;5.22;100.00;99250.84;5022938;28;20030;-59
2022/04/04 10:45:31;;;;;;;0.40;0.40;;;;;;;5.17;100.00;99248.44;5016977;28;20122;-60
2022/04/04 10:48:07;;;;;;;0.32;0.32;;;;;;;5.15;100.00;99235.47;5021100;28;20034;-60
2022/04/04 10:50:34;;;;;;;0.20;0.20;;;;;;;5.02;100.00;99226.06;5016276;28;20029;-57
2022/04/04 10:53:01;;;;;;;0.20;0.20;;;;;;;5.05;100.00;99230.69;5006374;28;20144;-59
2022/04/04 10:55:30;;;;;;;0.20;0.20;;;;;;;4.84;100.00;99226.88;5022485;28;20018;-60
2022/04/04 10:57:59;;;;;;;0.90;0.52;;;;;;;4.94;100.00;99221.72;5016226;28;20545;-59
2022/04/04 11:00:54;;;;;;;0.20;0.20;;;;;;;5.08;100.00;99218.56;5012985;28;20041;-59
2022/04/04 11:03:52;;;;;;;2.45;0.35;;;;;;;4.98;100.00;99206.56;4976991;28;20559;-59
2022/04/04 11:09:12;;;;;;;0.68;0.40;;;;;;;5.36;100.00;99205.72;4981213;28;20088;-60
2022/04/04 11:11:50;;;;;;;0.20;0.20;;;;;;;5.31;100.00;99196.13;4983036;28;20049;-58
2022/04/04 11:14:42;;;;;;;0.10;0.10;;;;;;;5.26;100.00;99187.63;4976583;28;20666;-58
2022/04/04 11:17:21;;;;;;;0.10;0.10;;;;;;;5.20;100.00;99184.50;4981876;28;20408;-58
2022/04/04 11:19:50;;;;;;;0.60;0.60;;;;;;;5.27;100.00;99173.94;4968071;28;20038;-58
2022/04/04 11:22:18;;;;;;;0.10;0.10;;;;;;;5.17;100.00;99176.41;4977313;28;20034;-61
2022/04/04 11:24:50;;;;;;;0.20;0.20;;;;;;;5.19;100.00;99144.81;4969940;28;20275;-59
2022/04/04 11:27:16;;;;;;;0.75;0.52;;;;;;;5.14;100.00;99169.91;4973855;28;20141;-59
2022/04/04 11:29:41;;;;;;;0.20;0.20;;;;;;;5.13;100.00;99160.34;4979128;28;20113;-59
2022/04/04 11:32:15;;;;;;;0.10;0.10;;;;;;;5.21;100.00;99151.34;4979010;28;20848;-59
2022/04/04 11:34:42;;;;;;;0.20;0.20;;;;;;;5.14;100.00;99148.56;4985351;28;20080;-60
2022/04/04 11:37:17;;;;;;;0.30;0.20;;;;;;;5.43;100.00;99142.56;4987249;28;20101;-57
2022/04/04 11:39:45;;;;;;;0.10;0.10;;;;;;;5.34;100.00;99136.69;4995498;28;20088;-59
2022/04/04 11:42:10;;;;;;;0.75;0.20;;;;;;;5.39;100.00;99125.72;5024403;28;20410;-59